»·PEaware :: SWA980 KPHX-KABQ

SWA980 :: KPHX-KABQ

FLIGHT INFORMATION

Flight Status: Arrived
Operator:
Southwest Airlines
More flights by this operator :: More flights under this callsign
Pilot: Rohan O. (9904)
Aircraft: BOEING 737-300
(B733)
More flights by this aircraft type
Origin: KPHX Phoenix Sky Harbor Intl
United States
Destination: KABQ Albuquerque Intl Sunport
United States
More flights between these airports :: More routes between these airports
Route: LALUZ5 SJN CABNO KRKEE3
File this flight plan on PilotEdge
Remarks: PBN / A1B3B4B5D3D4 DOF / 180416 REG / N155AW OPR / SWA PER / C RMK / TCAS SIMBRIEF
Altitude:
(Current/Filed)
35,000ft
Speed:
(Current/Filed)
410kts
Departed: 16-Apr-18 07:19 AM
Arrived: 16-Apr-18 08:08 AM
Distance/Time
Traveled:
284nm/0:49
Distance/Time
To Go:
Arrived

Flight Plot

Page will automatically refresh every two minutes.

Flight plan parsing failed; only flown route is shown


Map Options




Map Legend


Flown Route
Filed Route
Departure Airport
Arrival Airport
Navaid (VOR, NDB)
Fix

Horizontal Profiles

Position Reports

Time Latitude Longitude Heading Altitude Ground
Speed
16-Apr-18 06:22 33.434489 -112.008277 270 1141ft 0kts
16-Apr-18 06:23 33.434489 -112.008277 270 1141ft 0kts
16-Apr-18 06:24 33.434489 -112.008277 270 1141ft 0kts
16-Apr-18 06:25 33.434489 -112.008277 270 1141ft 0kts
16-Apr-18 06:26 33.434489 -112.008277 270 1141ft 0kts
16-Apr-18 06:27 33.434489 -112.008277 270 1141ft 0kts
16-Apr-18 06:28 33.434489 -112.008277 270 1141ft 0kts
16-Apr-18 06:29 33.434489 -112.008277 270 1141ft 0kts
16-Apr-18 06:30 33.434489 -112.008277 270 1141ft 0kts
16-Apr-18 06:31 33.434489 -112.008277 270 1141ft 0kts
16-Apr-18 06:32 33.434489 -112.008277 270 1141ft 0kts
16-Apr-18 06:33 33.434489 -112.008277 270 1141ft 0kts
16-Apr-18 06:34 33.434489 -112.008277 270 1141ft 0kts
16-Apr-18 06:35 33.434489 -112.008277 270 1141ft 0kts
16-Apr-18 06:36 33.434489 -112.008277 270 1141ft 0kts
16-Apr-18 06:37 33.434489 -112.008277 270 1141ft 0kts
16-Apr-18 06:38 33.434489 -112.008277 270 1141ft 0kts
16-Apr-18 06:39 33.434489 -112.008277 270 1141ft 0kts
16-Apr-18 06:40 33.434489 -112.008277 270 1141ft 0kts
16-Apr-18 06:41 33.434489 -112.008277 270 1141ft 0kts
16-Apr-18 06:42 33.434489 -112.008277 270 1141ft 0kts
16-Apr-18 06:43 33.434489 -112.008277 270 1141ft 0kts
16-Apr-18 06:44 33.434489 -112.008277 270 1141ft 0kts
16-Apr-18 06:45 33.434489 -112.008277 270 1141ft 0kts
16-Apr-18 06:46 33.434489 -112.008277 270 1141ft 0kts
16-Apr-18 06:47 33.434489 -112.008277 270 1141ft 0kts
16-Apr-18 06:48 33.434489 -112.008277 270 1141ft 0kts
16-Apr-18 06:49 33.434489 -112.008277 270 1141ft 0kts
16-Apr-18 06:50 33.434489 -112.008277 270 1141ft 0kts
16-Apr-18 06:51 33.434489 -112.008277 270 1141ft 0kts
16-Apr-18 06:52 33.434489 -112.008277 270 1141ft 0kts
16-Apr-18 06:53 33.434489 -112.008277 270 1141ft 0kts
16-Apr-18 06:54 33.434489 -112.008277 270 1141ft 0kts
16-Apr-18 06:55 33.434489 -112.008277 270 1141ft 0kts
16-Apr-18 06:56 33.434489 -112.008277 270 1141ft 0kts
16-Apr-18 06:57 33.434489 -112.008277 270 1141ft 0kts
16-Apr-18 06:58 33.434489 -112.008277 270 1141ft 0kts
16-Apr-18 06:59 33.434489 -112.008277 270 1141ft 0kts
16-Apr-18 07:00 33.434489 -112.008277 270 1141ft 0kts
16-Apr-18 07:01 33.434489 -112.008277 270 1141ft 0kts
16-Apr-18 07:02 33.434489 -112.008277 270 1141ft 0kts
16-Apr-18 07:03 33.434489 -112.008277 270 1141ft 0kts
16-Apr-18 07:04 33.434489 -112.008277 270 1141ft 0kts
16-Apr-18 07:05 33.434488 -112.008139 270 1141ft 0kts
16-Apr-18 07:06 33.434487 -112.007701 270 1141ft 0kts
16-Apr-18 07:07 33.434487 -112.007701 270 1141ft 0kts
16-Apr-18 07:08 33.434487 -112.007701 270 1141ft 0kts
16-Apr-18 07:09 33.434487 -112.007701 270 1141ft 0kts
16-Apr-18 07:10 33.434487 -112.007701 270 1141ft 0kts
16-Apr-18 07:11 33.434487 -112.007701 270 1141ft 0kts
16-Apr-18 07:12 33.433360 -112.007595 179 1141ft 10kts
16-Apr-18 07:13 33.432168 -112.010860 270 1141ft 16kts
16-Apr-18 07:14 33.432158 -112.016965 271 1141ft 20kts
16-Apr-18 07:15 33.432173 -112.022707 270 1141ft 4kts
16-Apr-18 07:16 33.432168 -112.025320 269 1141ft 11kts
16-Apr-18 07:17 33.431295 -112.026927 168 1141ft 7kts
16-Apr-18 07:18 33.431075 -112.013594 89 1141ft 141kts
16-Apr-18 07:19 33.432821 -111.951504 86 3177ft 210kts
16-Apr-18 07:20 33.436969 -111.877602 71 5715ft 242kts
16-Apr-18 07:21 33.470843 -111.804349 60 7930ft 285kts
16-Apr-18 07:22 33.507023 -111.716161 66 10461ft 315kts
16-Apr-18 07:23 33.547712 -111.615138 65 12534ft 357kts
16-Apr-18 07:24 33.591482 -111.507253 66 15154ft 372kts
16-Apr-18 07:25 33.637093 -111.394229 66 17443ft 389kts
16-Apr-18 07:26 33.682732 -111.280601 67 19459ft 405kts
16-Apr-18 07:27 33.727568 -111.155689 69 21372ft 418kts
16-Apr-18 07:28 33.774058 -111.025428 69 23181ft 431kts
16-Apr-18 07:29 33.821134 -110.892920 68 24887ft 442kts
16-Apr-18 07:30 33.869014 -110.757556 68 26401ft 454kts
16-Apr-18 07:31 33.918230 -110.617633 67 27813ft 466kts
16-Apr-18 07:32 33.969036 -110.472917 67 29159ft 476kts
16-Apr-18 07:33 34.018922 -110.330152 68 30291ft 487kts
16-Apr-18 07:34 34.070327 -110.181631 68 31624ft 486kts
16-Apr-18 07:35 34.119050 -110.040786 67 32877ft 481kts
16-Apr-18 07:36 34.170195 -109.892854 67 33830ft 482kts
16-Apr-18 07:37 34.220946 -109.745007 67 34777ft 480kts
16-Apr-18 07:38 34.270617 -109.599636 67 35215ft 480kts
16-Apr-18 07:39 34.320341 -109.453067 67 35173ft 478kts
16-Apr-18 07:40 34.369043 -109.308511 68 35149ft 486kts
16-Apr-18 07:41 34.418810 -109.159465 68 35146ft 485kts
16-Apr-18 07:42 34.442219 -109.002061 84 35151ft 483kts
16-Apr-18 07:43 34.462022 -108.843739 83 35166ft 482kts
16-Apr-18 07:44 34.481778 -108.685542 83 35192ft 483kts
16-Apr-18 07:45 34.501224 -108.526389 83 35213ft 482kts
16-Apr-18 07:46 34.527545 -108.368647 79 35231ft 483kts
16-Apr-18 07:47 34.552787 -108.221600 80 31840ft 503kts
16-Apr-18 07:48 34.580756 -108.057571 80 29069ft 490kts
16-Apr-18 07:49 34.607475 -107.899408 79 26230ft 482kts
16-Apr-18 07:50 34.646670 -107.748444 60 23365ft 472kts
16-Apr-18 07:51 34.707166 -107.610805 61 21214ft 441kts
16-Apr-18 07:52 34.760265 -107.487400 61 20022ft 402kts
16-Apr-18 07:53 34.808874 -107.374024 61 18140ft 389kts
16-Apr-18 07:54 34.852403 -107.271374 63 16398ft 377kts
16-Apr-18 07:55 34.897857 -107.160851 62 14673ft 357kts
16-Apr-18 07:56 34.940785 -107.059789 61 13337ft 333kts
16-Apr-18 07:57 34.981482 -106.964898 58 11701ft 321kts
16-Apr-18 07:58 35.023538 -106.875345 57 10453ft 299kts
16-Apr-18 07:59 35.063004 -106.789344 69 9451ft 317kts
16-Apr-18 08:00 35.055854 -106.691005 93 8220ft 288kts
16-Apr-18 08:01 35.075055 -106.617646 49 7472ft 250kts
16-Apr-18 08:02 35.114326 -106.571024 34 8219ft 207kts
16-Apr-18 08:03 35.136474 -106.513082 133 7866ft 224kts
16-Apr-18 08:04 35.096564 -106.538286 235 7475ft 202kts
16-Apr-18 08:05 35.063491 -106.580215 230 6111ft 159kts
16-Apr-18 08:06 35.034904 -106.615376 224 5361ft 126kts
16-Apr-18 08:07 35.030043 -106.622090 315 5361ft 1kts
16-Apr-18 08:08 35.030895 -106.622287 39 5361ft 9kts
16-Apr-18 08:09 35.032868 -106.619926 45 5361ft 11kts
16-Apr-18 08:10 35.035315 -106.616970 44 5361ft 14kts
16-Apr-18 08:11 35.037830 -106.614210 8 5361ft 3kts
16-Apr-18 08:12 35.039118 -106.613852 3 5361ft 6kts
16-Apr-18 08:13 35.041523 -106.613815 0 5361ft 11kts
16-Apr-18 08:14 35.044782 -106.613750 1 5361ft 8kts
16-Apr-18 08:15 35.045691 -106.615719 271 5361ft 5kts
16-Apr-18 08:16 35.046934 -106.615890 10 5361ft 0kts

Navigation Log

Ident Type
Flight plan parsing failed, navigation log unavailable